Main page
Satellite images 10-day forecastsClimateMarine weather Cyclones Lightning AirportsFAQ Newsletter About
Weather : Europe Africa North America South America Asia Australia-Oceania Others
Languages Contact

Buenos Aires, Argentina

Aeroparque Jorge Newbery

latitude: 34-34S, longitude: 058-25W, elevation: 6 m


METAR: SABE 021400Z 07004KT 9999 BKN040 BKN200 16/13 Q1008
TAF: SABE 021100Z 0212/0312 VRB03KT 7000 SCT020 BKN100 TX18/0218Z TN11/0310Z BECMG 0214/0216 15010KT CAVOK

Time: 11:18 (14:18 UTC)

Current weather observation

The report was made 18 minutes ago, at 14:00 UTC
Wind 4 kt from the East/Northeast
Temperature 16°C
Humidity 82%
Pressure 1008 hPa
Visibility 10 km or more
Broken clouds at a height of 4000 ft
Broken clouds at a height of 20000 ft

Change units

Forecast

The report was made 3 hours and 18 minutes ago, at 11:00 UTC
Forecast valid from 02 at 12 UTC to 03 at 12 UTC
Wind 3 kt from variable directions
Visibility: 7000 m
Scattered clouds at a height of 2000 ft
Broken clouds at a height of 10000 ft
Becoming
from 02 at 14 UTC to 02 at 16 UTC
Wind 10 kt from the South/Southeast
Visibility 10 km or more
no clouds below 1500 m and no cumulonimbus
The information on this site is subject to a disclaimer
Weather : Europe Africa North America South America Asia Australia-Oceania Others
Satellite images 10-day forecastsClimateMarine weather Cyclones Lightning AirportsFAQ Languages Contact Newsletter About